Time;durP1;ratioP1;P1;durP2;ratioP2;P2;SDS_P1;SDS_P2;PMS_P1;PMS_P2;Temp;Humidity;BMP_temperature;BMP_pressure;BME280_temperature;BME280_humidity;BME280_pressure;Samples;Min_cycle;Max_cycle;Signal;HPM_P1;HPM_P2
2022/07/01 00:01:23;;;;;;;21.77;14.10;;;;;;;13.53;100.00;101439.75;4990189;28;20031;-61
2022/07/01 00:03:49;;;;;;;23.70;14.63;;;;;;;13.52;100.00;101446.03;4974843;28;20085;-59
2022/07/01 00:06:15;;;;;;;25.63;15.43;;;;;;;13.48;100.00;101436.44;4974813;28;20038;-59
2022/07/01 00:08:40;;;;;;;23.73;14.80;;;;;;;13.46;100.00;101449.81;4974891;28;20031;-59
2022/07/01 00:11:06;;;;;;;24.70;15.38;;;;;;;13.41;100.00;101447.41;4974662;28;20081;-59
2022/07/01 00:13:33;;;;;;;24.92;16.00;;;;;;;13.37;100.00;101459.09;4974744;28;20023;-60
2022/07/01 00:15:58;;;;;;;26.73;16.23;;;;;;;13.34;100.00;101461.00;4974719;28;20033;-60
2022/07/01 00:18:24;;;;;;;26.33;16.20;;;;;;;13.31;100.00;101451.38;4974950;28;20042;-60
2022/07/01 00:20:50;;;;;;;27.00;16.45;;;;;;;13.26;100.00;101445.41;4974354;28;20364;-60
2022/07/01 00:23:16;;;;;;;26.95;16.15;;;;;;;13.25;100.00;101443.69;4973590;28;20034;-60
2022/07/01 00:25:42;;;;;;;27.58;16.10;;;;;;;13.21;100.00;101448.28;4987479;28;20058;-60
2022/07/01 00:28:08;;;;;;;29.10;16.85;;;;;;;13.21;100.00;101447.41;4988422;28;20501;-60
2022/07/01 00:30:33;;;;;;;27.35;16.30;;;;;;;13.21;100.00;101466.91;4974151;28;20038;-59
2022/07/01 00:32:59;;;;;;;29.30;16.20;;;;;;;13.20;100.00;101457.19;4989467;28;20060;-60
2022/07/01 00:35:24;;;;;;;25.75;15.77;;;;;;;13.20;100.00;101477.63;4974713;28;20398;-60
2022/07/01 00:37:50;;;;;;;26.17;17.02;;;;;;;13.16;100.00;101474.22;4989208;28;20464;-59
2022/07/01 00:40:15;;;;;;;29.02;16.50;;;;;;;13.14;100.00;101469.91;4974096;28;20039;-61
2022/07/01 00:42:42;;;;;;;26.55;16.20;;;;;;;13.13;100.00;101468.19;4974285;28;20098;-59
2022/07/01 00:45:11;;;;;;;31.38;16.20;;;;;;;13.11;100.00;101473.56;4972931;28;20023;-59
2022/07/01 00:47:38;;;;;;;30.77;16.77;;;;;;;13.08;100.00;101474.59;4989150;28;20064;-59
2022/07/01 00:50:07;;;;;;;26.02;16.52;;;;;;;13.06;100.00;101460.47;4988738;28;20494;-58
2022/07/01 00:52:34;;;;;;;30.00;17.27;;;;;;;13.05;100.00;101469.38;4974057;28;20054;-60
2022/07/01 00:55:03;;;;;;;24.98;15.68;;;;;;;13.06;100.00;101462.28;4988960;28;20455;-60
2022/07/01 00:57:33;;;;;;;30.60;18.30;;;;;;;13.07;100.00;101467.53;4988817;28;20045;-60
2022/07/01 01:00:00;;;;;;;27.98;16.33;;;;;;;13.10;100.00;101456.75;4973727;28;20470;-61
2022/07/01 01:02:26;;;;;;;28.85;16.80;;;;;;;13.10;100.00;101450.56;4973656;28;20054;-60
2022/07/01 01:04:51;;;;;;;28.50;17.63;;;;;;;13.10;100.00;101454.09;4974070;28;20066;-59
2022/07/01 01:07:16;;;;;;;29.40;17.58;;;;;;;13.09;100.00;101455.03;4973903;28;20395;-60
2022/07/01 01:09:42;;;;;;;28.65;16.45;;;;;;;13.06;100.00;101446.34;4973496;28;20069;-59
2022/07/01 01:12:11;;;;;;;28.15;16.65;;;;;;;13.02;100.00;101436.75;4973539;28;20023;-60
2022/07/01 01:14:49;;;;;;;28.02;16.75;;;;;;;13.01;100.00;101445.69;4973978;28;20026;-60
2022/07/01 01:17:16;;;;;;;23.88;15.07;;;;;;;12.97;100.00;101444.97;4973858;28;20514;-60
2022/07/01 01:19:43;;;;;;;25.88;15.10;;;;;;;12.97;100.00;101441.41;4973414;28;20026;-59
2022/07/01 01:22:09;;;;;;;29.35;15.15;;;;;;;12.95;100.00;101449.47;4973461;28;20055;-60
2022/07/01 01:24:36;;;;;;;24.70;14.02;;;;;;;12.94;100.00;101453.03;4973570;28;20031;-60
2022/07/01 01:27:05;;;;;;;24.05;13.15;;;;;;;12.93;100.00;101449.53;4972293;28;20027;-58
2022/07/01 01:29:31;;;;;;;24.42;13.23;;;;;;;12.92;100.00;101461.09;4973293;28;20031;-58
2022/07/01 01:31:57;;;;;;;24.40;13.65;;;;;;;12.91;100.00;101455.84;4973290;28;20030;-61
2022/07/01 01:34:22;;;;;;;21.83;12.70;;;;;;;12.89;100.00;101450.63;4973735;28;20501;-59
2022/07/01 01:36:48;;;;;;;21.33;12.18;;;;;;;12.89;100.00;101461.25;4973239;28;20027;-60
2022/07/01 01:39:16;;;;;;;22.67;12.40;;;;;;;12.89;100.00;101465.69;4973687;28;20030;-59
2022/07/01 01:41:42;;;;;;;23.70;12.68;;;;;;;12.85;100.00;101464.09;4973191;28;20395;-59
2022/07/01 01:44:08;;;;;;;20.08;11.35;;;;;;;12.83;100.00;101463.31;4972050;28;20058;-60
2022/07/01 01:46:34;;;;;;;21.70;12.05;;;;;;;12.84;100.00;101475.66;4973335;28;20022;-60
2022/07/01 01:49:00;;;;;;;26.25;12.25;;;;;;;12.84;100.00;101488.94;4973602;28;20058;-60
2022/07/01 01:51:26;;;;;;;21.55;11.10;;;;;;;12.83;100.00;101484.59;4972795;28;20035;-59
2022/07/01 01:53:52;;;;;;;23.05;11.23;;;;;;;12.86;100.00;101487.09;4973277;28;20030;-59
2022/07/01 01:56:17;;;;;;;22.58;11.13;;;;;;;12.90;100.00;101494.00;4973279;28;20390;-59
2022/07/01 01:58:43;;;;;;;17.73;10.85;;;;;;;12.95;100.00;101492.88;4987998;28;20035;-60
2022/07/01 02:01:10;;;;;;;20.77;10.68;;;;;;;13.03;100.00;101499.63;4972739;28;20023;-60
2022/07/01 02:03:37;;;;;;;21.98;10.45;;;;;;;13.11;100.00;101478.91;4972941;28;20051;-59
2022/07/01 02:06:03;;;;;;;17.95;10.27;;;;;;;13.20;100.00;101477.63;4973127;28;20023;-60
2022/07/01 02:08:30;;;;;;;19.92;10.10;;;;;;;13.25;100.00;101479.13;4978231;28;20141;-60
2022/07/01 02:10:55;;;;;;;17.35;9.88;;;;;;;13.29;100.00;101474.53;4979210;28;20114;-59
2022/07/01 02:13:21;;;;;;;18.88;10.30;;;;;;;13.33;100.00;101475.25;4979743;28;20077;-60
2022/07/01 02:15:48;;;;;;;15.55;9.02;;;;;;;13.32;100.00;101490.34;4994418;28;20414;-59
2022/07/01 02:18:14;;;;;;;16.60;9.32;;;;;;;13.31;100.00;101498.41;4979537;28;20046;-59
2022/07/01 02:20:39;;;;;;;15.43;9.32;;;;;;;13.26;100.00;101488.84;4979041;28;20022;-59
2022/07/01 02:23:04;;;;;;;14.95;8.60;;;;;;;13.21;100.00;101493.50;4979430;28;20049;-60
2022/07/01 02:25:30;;;;;;;16.02;8.77;;;;;;;13.17;100.00;101497.25;4979412;28;20503;-60
2022/07/01 02:27:55;;;;;;;15.43;8.73;;;;;;;13.14;100.00;101497.34;4979394;28;20034;-60
2022/07/01 02:30:20;;;;;;;16.42;8.85;;;;;;;13.12;100.00;101496.59;4978170;28;20117;-59
2022/07/01 02:32:46;;;;;;;15.70;8.73;;;;;;;13.11;100.00;101489.53;4979092;28;20163;-60
2022/07/01 02:35:11;;;;;;;12.63;7.43;;;;;;;13.11;100.00;101494.84;4979181;28;20019;-60
2022/07/01 02:37:37;;;;;;;12.77;7.45;;;;;;;13.13;100.00;101494.78;4979234;28;20031;-60
2022/07/01 02:40:02;;;;;;;16.67;7.70;;;;;;;13.14;100.00;101501.81;4977664;28;20058;-60
2022/07/01 02:42:31;;;;;;;12.23;7.13;;;;;;;13.14;100.00;101494.69;4979109;28;20482;-59
2022/07/01 02:44:57;;;;;;;12.02;7.20;;;;;;;13.16;100.00;101505.25;4979102;28;20037;-60
2022/07/01 02:47:22;;;;;;;11.52;6.80;;;;;;;13.17;100.00;101499.91;4979437;28;20027;-59
2022/07/01 02:49:51;;;;;;;10.82;6.18;;;;;;;13.16;100.00;101495.50;4994015;28;20023;-60
2022/07/01 02:52:16;;;;;;;11.88;6.72;;;;;;;13.16;100.00;101503.47;4993897;28;20438;-60
2022/07/01 02:54:42;;;;;;;10.57;5.60;;;;;;;13.14;100.00;101494.69;4979119;28;20034;-60
2022/07/01 02:57:07;;;;;;;11.60;5.53;;;;;;;13.12;100.00;101496.59;4979011;28;20425;-60
2022/07/01 02:59:33;;;;;;;9.88;5.32;;;;;;;13.09;100.00;101505.56;4979008;28;20063;-60
2022/07/01 03:01:58;;;;;;;10.35;5.57;;;;;;;13.07;100.00;101502.09;4978747;28;20038;-60
2022/07/01 03:04:24;;;;;;;9.73;5.57;;;;;;;13.06;100.00;101503.03;4977811;28;20101;-60
2022/07/01 03:06:49;;;;;;;14.30;5.30;;;;;;;13.05;100.00;101505.75;4977807;28;20090;-61
2022/07/01 03:09:14;;;;;;;8.55;5.40;;;;;;;13.00;100.00;101505.09;4979082;28;20042;-59
2022/07/01 03:11:40;;;;;;;12.13;5.88;;;;;;;12.99;100.00;101508.69;4978558;28;20034;-60
2022/07/01 03:14:05;;;;;;;10.90;5.65;;;;;;;12.93;100.00;101513.34;4978880;28;20035;-60
2022/07/01 03:16:30;;;;;;;10.82;5.50;;;;;;;12.91;100.00;101511.69;4977803;28;20035;-60
2022/07/01 03:18:57;;;;;;;9.45;5.68;;;;;;;12.88;100.00;101512.69;4976290;28;20367;-60
2022/07/01 03:21:22;;;;;;;11.18;5.93;;;;;;;12.85;100.00;101509.28;4975977;28;20018;-60
2022/07/01 03:23:47;;;;;;;10.52;5.30;;;;;;;12.83;100.00;101498.72;4975745;28;20034;-60
2022/07/01 03:26:14;;;;;;;12.60;6.20;;;;;;;12.82;100.00;101497.00;4973114;28;20458;-60
2022/07/01 03:28:40;;;;;;;12.02;5.82;;;;;;;12.79;100.00;101489.16;4974543;28;20542;-60
2022/07/01 03:31:05;;;;;;;10.10;5.97;;;;;;;12.78;100.00;101488.28;4974236;28;20161;-60
2022/07/01 03:33:30;;;;;;;15.15;6.53;;;;;;;12.78;100.00;101496.25;4975494;28;20090;-61
2022/07/01 03:35:56;;;;;;;13.52;6.00;;;;;;;12.78;100.00;101511.34;4975385;28;20113;-60
2022/07/01 03:38:21;;;;;;;12.20;6.32;;;;;;;12.77;100.00;101517.59;4974493;28;20066;-60
2022/07/01 03:40:46;;;;;;;12.00;6.90;;;;;;;12.75;100.00;101515.00;4975252;28;20025;-60
2022/07/01 03:43:12;;;;;;;13.82;6.80;;;;;;;12.75;100.00;101530.97;4975297;28;20027;-60
2022/07/01 03:45:39;;;;;;;13.27;6.78;;;;;;;12.74;100.00;101534.53;4975306;28;20033;-60
2022/07/01 03:48:05;;;;;;;14.50;7.35;;;;;;;12.74;100.00;101526.56;4973914;28;20082;-60
2022/07/01 03:50:30;;;;;;;10.32;6.57;;;;;;;12.74;100.00;101531.88;4975043;28;20027;-60
2022/07/01 03:55:40;;;;;;;14.00;7.05;;;;;;;12.81;100.00;101540.44;4987898;28;20174;-60
2022/07/01 03:58:05;;;;;;;12.75;6.75;;;;;;;12.89;100.00;101540.13;4975076;28;20110;-60
2022/07/01 04:00:36;;;;;;;13.48;6.88;;;;;;;12.95;100.00;101542.50;4974825;28;20398;-60
2022/07/01 04:03:02;;;;;;;15.35;6.95;;;;;;;12.98;100.00;101545.06;4973336;28;20081;-60
2022/07/01 04:05:28;;;;;;;12.27;6.50;;;;;;;12.98;100.00;101539.75;4975060;28;20034;-59
2022/07/01 04:07:53;;;;;;;12.40;6.38;;;;;;;12.99;100.00;101541.44;4975012;28;20027;-60
2022/07/01 04:10:19;;;;;;;12.20;6.72;;;;;;;13.00;100.00;101543.16;4974652;28;20047;-59
2022/07/01 04:12:44;;;;;;;16.80;7.65;;;;;;;13.02;100.00;101548.41;4974637;28;20031;-60
2022/07/01 04:15:10;;;;;;;14.82;6.45;;;;;;;13.02;100.00;101551.97;4973517;28;20150;-60
2022/07/01 04:17:36;;;;;;;10.45;6.75;;;;;;;13.02;100.00;101549.28;4974728;28;20061;-60
2022/07/01 04:20:01;;;;;;;14.70;6.85;;;;;;;13.05;100.00;101557.13;4974393;28;20398;-60
2022/07/01 04:22:32;;;;;;;12.07;6.80;;;;;;;13.11;100.00;101556.88;4974726;28;20121;-60
2022/07/01 04:24:58;;;;;;;14.67;7.00;;;;;;;13.22;100.00;101556.41;4973466;28;20034;-60
2022/07/01 04:27:24;;;;;;;13.00;7.00;;;;;;;13.31;100.00;101543.59;4974807;28;20418;-60
2022/07/01 04:29:49;;;;;;;12.90;6.25;;;;;;;13.34;100.00;101544.34;4973945;28;20530;-60
2022/07/01 04:32:15;;;;;;;12.20;6.38;;;;;;;13.38;100.00;101551.28;4989330;28;20039;-60
2022/07/01 04:34:40;;;;;;;13.65;6.45;;;;;;;13.41;100.00;101553.81;4974366;28;20026;-60
2022/07/01 04:37:05;;;;;;;14.07;6.88;;;;;;;13.49;100.00;101564.09;4989257;28;20019;-60
2022/07/01 04:39:31;;;;;;;13.07;6.78;;;;;;;13.54;100.00;101563.88;4974217;28;20031;-60
2022/07/01 04:41:59;;;;;;;14.00;6.63;;;;;;;13.60;100.00;101569.78;4972723;28;20035;-60
2022/07/01 04:44:25;;;;;;;13.68;6.65;;;;;;;13.73;100.00;101569.22;4988933;28;20035;-60
2022/07/01 04:46:50;;;;;;;12.63;6.50;;;;;;;13.81;100.00;101574.19;4973018;28;20046;-60
2022/07/01 04:49:16;;;;;;;20.17;6.38;;;;;;;13.86;100.00;101575.72;4973844;28;20130;-60
2022/07/01 04:51:41;;;;;;;10.00;5.45;;;;;;;13.89;100.00;101572.88;4973942;28;20031;-59
2022/07/01 04:54:08;;;;;;;12.25;6.03;;;;;;;13.99;100.00;101565.34;4973921;28;20094;-60
2022/07/01 04:56:34;;;;;;;9.65;5.75;;;;;;;14.04;100.00;101565.09;4988883;28;20399;-60
2022/07/01 04:59:01;;;;;;;14.90;6.10;;;;;;;14.01;100.00;101559.94;4973901;28;20089;-60
2022/07/01 05:01:27;;;;;;;11.48;5.80;;;;;;;14.02;100.00;101570.50;4988477;28;20037;-59
2022/07/01 05:03:53;;;;;;;14.93;5.43;;;;;;;14.02;100.00;101585.63;4973684;28;20064;-59
2022/07/01 05:06:19;;;;;;;11.35;5.75;;;;;;;14.02;100.00;101581.16;4973616;28;20136;-60
2022/07/01 05:08:44;;;;;;;11.85;5.40;;;;;;;14.03;100.00;101582.91;4973860;28;20475;-60
2022/07/01 05:11:10;;;;;;;12.27;5.57;;;;;;;14.16;100.00;101590.31;4973306;28;20210;-60
2022/07/01 05:13:36;;;;;;;9.93;4.65;;;;;;;14.33;100.00;101586.81;4972318;28;20034;-59
2022/07/01 05:16:02;;;;;;;13.90;4.75;;;;;;;14.45;100.00;101596.88;4973397;28;20029;-60
2022/07/01 05:23:57;;;;;;;11.43;4.53;;;;;;;14.38;100.00;101588.31;4973247;28;20034;-60
2022/07/01 05:26:24;;;;;;;9.77;4.97;;;;;;;14.38;100.00;101598.13;4973686;28;20023;-60
2022/07/01 05:28:50;;;;;;;11.98;4.90;;;;;;;14.42;100.00;101600.56;4988070;28;20023;-60
2022/07/01 05:31:15;;;;;;;10.73;4.43;;;;;;;14.51;100.00;101595.72;4973040;28;20046;-60
2022/07/01 05:33:41;;;;;;;8.85;4.13;;;;;;;14.55;100.00;101586.63;4971924;28;20034;-60
2022/07/01 05:36:06;;;;;;;11.30;4.70;;;;;;;14.59;100.00;101597.06;4973518;28;20031;-60
2022/07/01 05:38:32;;;;;;;10.57;4.38;;;;;;;14.64;100.00;101587.97;4973231;28;20039;-60
2022/07/01 05:40:57;;;;;;;11.20;5.05;;;;;;;14.72;100.00;101600.00;4972503;28;20030;-60
2022/07/01 05:43:22;;;;;;;8.55;4.60;;;;;;;14.84;100.00;101597.66;4972983;28;20530;-60
2022/07/01 05:45:48;;;;;;;9.55;4.50;;;;;;;14.96;100.00;101599.72;4973082;28;20065;-60
2022/07/01 05:48:13;;;;;;;7.53;4.40;;;;;;;15.10;100.00;101593.66;4973166;28;20101;-60
2022/07/01 05:50:43;;;;;;;10.48;4.53;;;;;;;15.26;100.00;101593.72;4972850;28;20474;-61
2022/07/01 05:53:08;;;;;;;12.18;4.45;;;;;;;15.38;100.00;101589.53;4972932;28;20105;-59
2022/07/01 05:55:34;;;;;;;10.10;3.97;;;;;;;15.38;100.00;101584.19;4972779;28;20486;-60
2022/07/01 05:58:01;;;;;;;11.95;4.50;;;;;;;15.33;100.00;101586.25;4972808;28;20031;-60
2022/07/01 06:00:27;;;;;;;10.98;4.20;;;;;;;15.31;100.00;101582.81;4987496;28;20046;-60
2022/07/01 06:02:52;;;;;;;8.52;3.88;;;;;;;15.21;100.00;101585.09;4971706;28;20030;-60
2022/07/01 06:05:17;;;;;;;8.05;3.60;;;;;;;15.15;100.00;101578.25;4972642;28;20516;-60
2022/07/01 06:07:43;;;;;;;12.40;4.10;;;;;;;15.21;100.00;101583.28;4972858;28;20031;-60
2022/07/01 06:10:11;;;;;;;10.27;4.32;;;;;;;15.27;100.00;101573.22;4972590;28;20493;-60
2022/07/01 06:12:38;;;;;;;11.25;3.72;;;;;;;15.23;100.00;101569.88;4987227;28;20117;-59
2022/07/01 06:15:05;;;;;;;8.48;3.47;;;;;;;15.18;100.00;101579.91;4972623;28;20531;-60
2022/07/01 06:17:30;;;;;;;9.05;3.58;;;;;;;15.10;100.00;101588.31;4971757;28;20126;-60
2022/07/01 06:19:56;;;;;;;15.77;5.07;;;;;;;15.03;100.00;101592.25;4971596;28;20118;-60
2022/07/01 06:22:21;;;;;;;9.48;3.58;;;;;;;14.95;100.00;101589.97;4987171;28;20490;-60
2022/07/01 06:24:49;;;;;;;7.38;3.67;;;;;;;14.99;100.00;101591.53;4971123;28;20132;-59
2022/07/01 06:27:15;;;;;;;8.63;4.20;;;;;;;15.01;100.00;101595.00;4972523;28;20023;-60
2022/07/01 06:29:40;;;;;;;7.45;4.03;;;;;;;15.06;100.00;101600.09;4972822;28;20042;-59
2022/07/01 06:32:07;;;;;;;14.60;4.93;;;;;;;15.20;100.00;101599.38;4972314;28;20031;-59
2022/07/01 06:34:32;;;;;;;10.10;4.30;;;;;;;15.26;100.00;101592.88;4972760;28;20061;-59
2022/07/01 06:37:00;;;;;;;11.45;4.82;;;;;;;15.31;100.00;101591.66;4971317;28;20066;-59
2022/07/01 06:39:28;;;;;;;14.27;4.40;;;;;;;15.38;100.00;101584.19;4972761;28;20047;-60
2022/07/01 06:41:55;;;;;;;7.22;3.63;;;;;;;15.44;100.00;101589.22;4972658;28;20027;-61
2022/07/01 06:44:20;;;;;;;7.78;3.65;;;;;;;15.46;100.00;101592.69;4972373;28;20054;-59
2022/07/01 06:46:46;;;;;;;9.90;4.15;;;;;;;15.67;100.00;101584.44;4972570;28;20046;-59
2022/07/01 06:49:11;;;;;;;8.60;3.10;;;;;;;15.93;100.00;101587.53;4972481;28;20082;-59
2022/07/01 06:51:37;;;;;;;8.13;2.80;;;;;;;16.29;100.00;101575.69;4987169;28;20031;-59
2022/07/01 06:54:03;;;;;;;9.63;3.28;;;;;;;16.60;100.00;101585.50;4989069;28;20117;-59
2022/07/01 06:56:28;;;;;;;9.48;3.38;;;;;;;16.76;100.00;101577.41;4974435;28;20031;-61
2022/07/01 06:58:54;;;;;;;11.05;3.70;;;;;;;16.82;100.00;101593.09;4975517;28;20057;-59
2022/07/01 07:01:19;;;;;;;13.50;3.33;;;;;;;16.63;100.00;101593.31;4976022;28;20034;-60
2022/07/01 07:03:45;;;;;;;10.07;3.63;;;;;;;16.69;100.00;101595.63;4975985;28;20061;-59
2022/07/01 07:06:10;;;;;;;9.20;3.60;;;;;;;16.77;100.00;101594.34;4990592;28;20395;-59
2022/07/01 07:08:36;;;;;;;10.85;3.85;;;;;;;16.84;100.00;101599.22;4975910;28;20122;-61
2022/07/01 07:11:02;;;;;;;10.95;3.35;;;;;;;16.73;100.00;101596.31;4974571;28;20034;-60
2022/07/01 07:13:28;;;;;;;8.43;2.78;;;;;;;16.66;100.00;101606.53;4974664;28;20474;-60
2022/07/01 07:15:53;;;;;;;9.98;3.00;;;;;;;16.60;100.00;101603.31;4975907;28;20027;-60
2022/07/01 07:18:19;;;;;;;6.90;2.63;;;;;;;16.50;100.00;101597.66;4975649;28;20114;-60
2022/07/01 07:20:44;;;;;;;6.75;2.47;;;;;;;16.46;100.00;101606.78;4974781;28;20027;-60
2022/07/01 07:23:10;;;;;;;6.15;2.50;;;;;;;16.37;100.00;101610.88;4975613;28;20077;-59
2022/07/01 07:25:35;;;;;;;7.90;2.70;;;;;;;16.37;100.00;101611.72;4975599;28;20034;-60
2022/07/01 07:28:01;;;;;;;8.80;2.70;;;;;;;16.18;100.00;101613.72;4990505;28;20081;-60
2022/07/01 07:30:26;;;;;;;7.22;2.60;;;;;;;16.14;100.00;101622.84;4975635;28;20038;-60
2022/07/01 07:32:52;;;;;;;7.95;2.30;;;;;;;16.13;100.00;101629.16;4975705;28;20394;-59
2022/07/01 07:35:17;;;;;;;7.07;2.33;;;;;;;16.19;100.00;101626.16;4975420;28;20034;-59
2022/07/01 07:37:43;;;;;;;9.27;2.50;;;;;;;16.44;100.00;101632.78;4975319;28;20118;-59
2022/07/01 07:40:12;;;;;;;6.45;1.80;;;;;;;16.64;100.00;101635.16;4975218;28;20509;-59
2022/07/01 07:42:38;;;;;;;7.70;2.65;;;;;;;16.93;100.00;101635.31;4975486;28;20055;-59
2022/07/01 07:45:06;;;;;;;7.43;2.50;;;;;;;17.24;100.00;101632.59;4990103;28;20030;-59
2022/07/01 07:47:32;;;;;;;6.22;2.38;;;;;;;17.43;100.00;101643.94;4975408;28;20148;-62
2022/07/01 07:49:57;;;;;;;8.30;2.65;;;;;;;17.63;100.00;101649.88;4975075;28;20456;-60
2022/07/01 07:52:22;;;;;;;4.50;1.70;;;;;;;17.62;96.74;101648.13;4975080;28;20034;-60
2022/07/01 07:54:48;;;;;;;7.70;2.33;;;;;;;17.73;96.83;101642.97;4975176;28;20406;-60
2022/07/01 07:57:13;;;;;;;7.85;1.90;;;;;;;17.77;98.18;101646.34;4975207;28;20483;-59
2022/07/01 07:59:39;;;;;;;6.38;1.90;;;;;;;17.63;97.88;101647.19;4975194;28;20042;-60
2022/07/01 08:02:04;;;;;;;6.70;2.08;;;;;;;17.47;100.00;101650.81;4974684;28;20402;-60
2022/07/01 08:04:30;;;;;;;4.00;1.80;;;;;;;17.34;100.00;101650.69;4972348;28;20086;-60
2022/07/01 08:06:55;;;;;;;7.38;2.00;;;;;;;17.38;100.00;101653.19;4987810;28;20089;-58
2022/07/01 08:09:21;;;;;;;5.47;1.98;;;;;;;17.38;100.00;101661.22;4973182;28;20035;-59
2022/07/01 08:11:46;;;;;;;8.35;1.90;;;;;;;17.56;100.00;101653.88;4986847;28;20553;-59
2022/07/01 08:14:12;;;;;;;34.22;21.60;;;;;;;17.47;100.00;101656.16;4972264;28;20033;-59
2022/07/01 08:16:38;;;;;;;5.25;1.98;;;;;;;17.41;100.00;101666.41;4972632;28;20030;-59
2022/07/01 08:19:03;;;;;;;6.97;1.80;;;;;;;17.31;100.00;101668.75;4973137;28;20088;-59
2022/07/01 08:21:29;;;;;;;7.70;1.70;;;;;;;17.10;100.00;101661.06;4973978;28;20077;-60
2022/07/01 08:23:55;;;;;;;3.38;1.40;;;;;;;16.94;100.00;101669.13;4974726;28;20039;-59
2022/07/01 08:26:20;;;;;;;5.88;1.50;;;;;;;16.96;100.00;101671.72;4989414;28;20364;-59
2022/07/01 08:28:46;;;;;;;3.83;1.60;;;;;;;16.83;100.00;101667.06;4974525;28;20104;-59
2022/07/01 08:31:12;;;;;;;2.97;1.35;;;;;;;16.66;100.00;101669.81;4974163;28;20023;-59
2022/07/01 08:33:37;;;;;;;9.75;2.13;;;;;;;16.46;100.00;101676.31;4974291;28;20027;-61
2022/07/01 08:36:04;;;;;;;8.00;1.83;;;;;;;16.27;100.00;101680.03;4974058;28;20077;-60
2022/07/01 08:38:30;;;;;;;2.90;1.58;;;;;;;16.32;100.00;101682.44;4974359;28;20427;-60
2022/07/01 08:40:55;;;;;;;3.00;1.60;;;;;;;16.21;100.00;101685.69;4972970;28;20034;-59
2022/07/01 08:43:21;;;;;;;8.18;1.70;;;;;;;16.16;100.00;101690.44;4974129;28;20023;-60
2022/07/01 08:45:47;;;;;;;4.50;1.67;;;;;;;16.00;100.00;101693.09;4974043;28;20048;-60
2022/07/01 08:48:13;;;;;;;5.28;1.65;;;;;;;15.73;100.00;101702.47;4974006;28;20027;-60
2022/07/01 08:50:40;;;;;;;5.60;2.25;;;;;;;15.47;100.00;101708.28;4972539;28;20101;-61
2022/07/01 08:53:08;;;;;;;8.75;2.10;;;;;;;15.25;100.00;101706.72;4973577;28;20483;-61
2022/07/01 08:56:40;;;;;;;8.10;1.92;;;;;;;15.18;100.00;101707.97;4973849;28;20042;-61
2022/07/01 08:58:24;;;;;;;8.40;2.58;;;;;;;15.11;100.00;101710.09;4973894;28;20062;-60
2022/07/01 09:00:50;;;;;;;9.05;2.45;;;;;;;15.15;100.00;101706.31;4986274;28;20030;-60
2022/07/01 09:03:15;;;;;;;7.85;2.35;;;;;;;15.22;100.00;101705.06;4987397;28;20326;-60
2022/07/01 09:05:49;;;;;;;6.45;1.80;;;;;;;15.37;100.00;101716.78;4972188;28;20035;-61
2022/07/01 09:08:14;;;;;;;6.72;1.80;;;;;;;15.54;100.00;101710.56;4973110;28;20026;-59
2022/07/01 09:10:40;;;;;;;6.28;1.73;;;;;;;15.78;100.00;101712.91;4973144;28;20030;-60
2022/07/01 09:13:12;;;;;;;6.72;1.85;;;;;;;16.86;100.00;101703.47;4985945;28;20035;-60
2022/07/01 09:15:38;;;;;;;;;;;;;;;17.82;100.00;101712.06;4971645;28;20391;-59
2022/07/01 09:18:11;;;;;;;;;;;;;;;17.60;100.00;101719.72;4971702;28;19910;-60
2022/07/01 09:20:38;;;;;;;;;;;;;;;17.20;100.00;101706.88;4972325;28;19969;-59
2022/07/01 09:23:06;;;;;;;;;;;;;;;17.06;100.00;101712.16;4972744;28;20432;-61
2022/07/01 09:25:51;;;;;;;;;;;;;;;17.10;100.00;101711.91;4972145;28;19916;-60
2022/07/01 09:28:16;;;;;;;;;;;;;;;17.95;98.26;101716.69;4971379;28;20309;-60
2022/07/01 09:30:43;;;;;;;;;;;;;;;19.15;95.56;101717.03;4972674;28;19913;-60
2022/07/01 09:33:09;;;;;;;;;;;;;;;19.46;90.96;101722.13;4973114;28;20008;-60
2022/07/01 09:35:36;;;;;;;;;;;;;;;20.57;89.58;101721.56;4973851;28;19973;-60
2022/07/01 09:38:01;;;;;;;;;;;;;;;21.71;80.12;101723.75;4973667;28;19910;-60
2022/07/01 09:40:44;;;;;;;;;;;;;;;22.15;74.26;101721.25;4973558;28;19917;-60
2022/07/01 09:43:13;;;;;;;;;;;;;;;22.53;73.53;101725.41;4973285;28;19910;-60
2022/07/01 09:45:47;;;;;;;;;;;;;;;22.54;70.41;101724.41;4973582;28;19910;-60
2022/07/01 09:48:13;;;;;;;;;;;;;;;22.61;71.29;101721.19;5004695;28;19910;-60
2022/07/01 09:50:38;;;;;;;;;;;;;;;22.52;73.62;101741.69;4973630;28;19956;-60
2022/07/01 09:53:03;;;;;;;;;;;;;;;21.60;72.07;101737.25;5004498;28;20011;-60
2022/07/01 09:55:29;;;;;;;;;;;;;;;20.66;74.78;101744.25;4973405;28;19914;-61
2022/07/01 09:57:54;;;;;;;;;;;;;;;19.83;79.64;101735.75;4973640;28;20289;-59
2022/07/01 10:00:20;;;;;;;;;;;;;;;20.09;77.37;101736.59;5004719;28;20385;-59
2022/07/01 10:02:46;;;;;;;;;;;;;;;19.93;78.89;101752.94;4973249;28;19918;-60
2022/07/01 10:05:15;;;;;;;;;;;;;;;19.73;80.77;101740.88;4973200;28;20400;-59
2022/07/01 10:07:46;;;;;;;;;;;;;;;19.67;83.79;101735.94;4973288;28;19953;-59
2022/07/01 10:10:22;;;;;;;;;;;;;;;19.74;84.70;101745.28;4973226;28;19996;-59
2022/07/01 10:12:50;;;;;;;;;;;;;;;19.32;79.52;101748.13;5004232;28;19953;-59
2022/07/01 10:15:17;;;;;;;;;;;;;;;19.45;81.70;101748.16;4973244;28;19940;-62
2022/07/01 10:17:46;;;;;;;;;;;;;;;20.84;78.69;101748.28;4973188;28;19910;-60
2022/07/01 10:20:16;;;;;;;;;;;;;;;22.32;72.75;101746.00;4972872;28;20277;-60
2022/07/01 10:22:42;;;;;;;;;;;;;;;23.30;65.96;101741.63;4973213;28;20338;-60
2022/07/01 10:25:39;;;;;;;;;;;;;;;23.58;63.81;101744.66;4973084;28;19929;-60
2022/07/01 10:28:16;;;;;;;;;;;;;;;24.24;58.16;101755.16;4962238;28;19914;-61
2022/07/01 10:30:48;;;;;;;;;;;;;;;24.39;59.10;101758.34;4977071;28;20462;-61
2022/07/01 10:33:34;;;;;;;;;;;;;;;23.63;58.82;101755.94;4976496;28;19918;-61
2022/07/01 10:36:05;;;;;;;;;;;;;;;22.35;62.39;101752.00;4975846;28;19910;-61
2022/07/01 10:38:31;;;;;;;;;;;;;;;21.44;63.62;101759.09;4976335;28;19910;-61
2022/07/01 10:41:09;;;;;;;;;;;;;;;20.88;68.83;101754.31;4991754;28;19917;-59
2022/07/01 10:43:34;;;;;;;;;;;;;;;20.75;68.28;101765.13;4976760;28;20001;-59
2022/07/01 10:46:00;;;;;;;;;;;;;;;20.43;72.55;101757.53;4976614;28;20422;-60
2022/07/01 10:48:25;;;;;;;;;;;;;;;20.36;69.04;101758.94;4976758;28;20172;-61
2022/07/01 10:50:52;;;;;;;;;;;;;;;21.28;61.32;101757.56;4976680;28;19910;-60
2022/07/01 10:53:17;;;;;;;;;;;;;;;21.54;56.83;101757.41;4976316;28;19914;-60
2022/07/01 10:55:53;;;;;;;;;;;;;;;21.22;59.95;101749.09;4976342;28;19936;-60
2022/07/01 10:58:20;;;;;;;;;;;;;;;20.94;58.23;101770.00;4976238;28;19965;-60
2022/07/01 11:00:50;;;;;;;;;;;;;;;20.38;61.60;101770.44;4976427;28;19988;-60
2022/07/01 11:03:15;;;;;;;;;;;;;;;19.73;64.60;101767.75;4991017;28;20013;-61
2022/07/01 11:05:41;;;;;;;;;;;;;;;19.11;67.55;101760.31;4976510;28;20001;-60
2022/07/01 11:08:07;;;;;;;;;;;;;;;19.18;69.16;101753.53;4976051;28;20327;-60
2022/07/01 11:10:33;;;;;;;;;;;;;;;19.26;68.50;101761.97;5007554;28;20388;-59
2022/07/01 11:13:02;;;;;;;;;;;;;;;19.34;66.94;101758.75;4976276;28;20270;-60
2022/07/01 11:15:31;;;;;;;;;;;;;;;19.25;67.24;101759.38;4990951;28;19910;-60
2022/07/01 11:17:56;;;;;;;;;;;;;;;19.09;68.15;101760.41;4991036;28;19910;-59
2022/07/01 11:20:23;;;;;;;;;;;;;;;18.73;66.86;101767.19;4976040;28;19921;-60
2022/07/01 11:22:48;;;;;;;;;;;;;;;18.48;77.52;101786.69;4976214;28;19993;-60
2022/07/01 11:25:13;;;;;;;;;;;;;;;17.72;91.00;101806.47;4975926;28;19996;-63
2022/07/01 11:27:40;;;;;;;;;;;;;;;16.84;100.00;101807.88;4976091;28;20001;-64
2022/07/01 11:30:08;;;;;;;;;;;;;;;16.34;100.00;101793.69;4975955;28;20010;-63
2022/07/01 11:32:35;;;;;;;;;;;;;;;16.22;100.00;101795.19;4975850;28;19955;-64